• Join FlightAware (Why Join?)
  • Login
  • US Flag 
09:22PM EST


 

Airport Tracker/Info


-or-


 

Live Flight TrackerFlight Track Log ✈ SWA1535 ✈ 22-Apr-2013 ✈ KDEN - KSLC

Flight Track Log - Related Links

Times and Time Zones

All times are in EDT time to prevent confusion due to time zone crossing. See the SWA1535 flight status page for this flight to view local times or setup timezone preferences in your user account.

Time Position Orientation Groundspeed Altitude Reporting Facility
EDT Latitude Longitude Course Direction KTS MPH feet Rate Location/Type
02:40AM 39.9000 -104.7000 285° West 177 204 7,100  Level Denver TRACON
02:41AM 39.9167 -104.7833 285° West 264 304 9,600 2,400 Climbing Denver TRACON
02:42AM 39.9333 -104.8833 282° West 332 382 12,000 3,240 Climbing Denver TRACON
02:43AM 39.9517 -105.0397 279° West 344 396 16,800 3,300 Climbing Denver Center
02:44AM 39.9661 -105.1661 279° West 355 409 19,400 2,820 Climbing Denver Center
02:45AM 39.9806 -105.2939 278° West 357 411 22,600 2,220 Climbing Denver Center
02:46AM 39.9803 -105.4194 270° West 346 398 23,900 1,620 Climbing Denver Center
02:47AM 39.9783 -105.5486 269° West 363 418 25,900 1,560 Climbing Denver Center
02:48AM 39.9733 -105.6828 267° West 367 422 27,100 2,580 Climbing Denver Center
02:49AM 39.9719 -105.8042 269° West 321 369 31,200 2,280 Climbing Denver Center
02:51AM 39.9831 -106.0544 273° West 348 400 34,100 1,500 Climbing Salt Lake Center
02:52AM 39.9883 -106.1781 273° West 341 392 35,800 1,260 Climbing Denver Center
02:53AM 39.9947 -106.3044 274° West 346 398 36,700 1,080 Climbing Denver Center
02:54AM 40.0017 -106.4322 274° West 350 403 38,000 600 Climbing Denver Center
02:55AM 40.0069 -106.5553 273° West 352 405 38,000  Level Denver Center
02:56AM 40.0153 -106.6969 274° West 353 406 38,000  Level Denver Center
02:57AM 40.0206 -106.8194 273° West 352 405 38,000  Level Denver Center
02:58AM 40.0267 -106.9425 274° West 355 409 38,000  Level Denver Center
03:00AM 40.0173 -107.0544 281° West  Level FlightAware Approximate
03:02AM 40.0433 -107.3333 274° West 360 414 38,000  Level Denver Center
03:03AM 40.0497 -107.4581 274° West 360 414 38,000  Level Denver Center
03:04AM 40.0553 -107.6061 273° West 365 420 38,000  Level Denver Center
03:05AM 40.0606 -107.7317 273° West 365 420 38,000  Level Denver Center
03:06AM 40.0644 -107.8581 272° West 364 419 38,000  Level Denver Center
03:07AM 40.0620 -107.8035 274° West  Level FlightAware Approximate
03:07AM 40.0706 -108.0047 273° West 364 419 38,000  Level Denver Center
03:08AM 40.0769 -108.1336 274° West 370 426 38,000  Level Denver Center
03:09AM 40.0831 -108.2633 274° West 375 432 38,000  Level Denver Center
03:10AM 40.0892 -108.4178 273° West 381 438 38,000  Level Denver Center
03:11AM 40.0947 -108.5467 273° West 375 432 38,000  Level Denver Center
03:12AM 40.0997 -108.6781 273° West 381 438 38,000  Level Denver Center
03:13AM 40.1058 -108.8322 273° West 381 438 38,000  Level Denver Center
03:14AM 40.1106 -108.9656 273° West 383 441 38,000  Level Salt Lake Center
03:15AM 40.1156 -109.0964 273° West 380 437 38,000  Level Salt Lake Center
03:16AM 40.1211 -109.2472 273° West 375 432 38,000  Level Denver Center
03:17AM 40.1253 -109.3778 272° West 375 432 38,000  Level Salt Lake Center
03:18AM 40.1306 -109.5078 273° West 375 432 38,000  Level Salt Lake Center
03:19AM 40.1350 -109.6589 272° West 374 430 38,000  Level Salt Lake Center
03:20AM 40.1386 -109.7919 272° West 381 438 38,000  Level Salt Lake Center
03:21AM 40.1419 -109.9253 272° West 383 441 38,000  Level Salt Lake Center
03:22AM 40.1467 -110.0797 272° West 382 440 38,000 -240 Level Salt Lake Center
03:23AM 40.1492 -110.2122 271° West 382 440 37,600 -1,500 Descending Salt Lake Center
03:24AM 40.1472 -110.3442 269° West 380 437 35,000 -2,280 Descending Salt Lake Center
03:25AM 40.1447 -110.4894 269° West 365 420 33,100 -2,700 Descending Salt Lake Center
03:26AM 40.1439 -110.6092 270° West 350 403 29,600 -2,340 Descending Salt Lake Center
03:27AM 40.1436 -110.7292 270° West 348 400 28,400 -1,380 Descending Salt Lake Center
03:28AM 40.1417 -110.8619 269° West 333 383 26,900 -1,680 Descending Salt Lake Center
03:29AM 40.1403 -110.9733 269° West 324 373 25,100 -1,920 Descending Salt Lake Center
03:30AM 40.1400 -111.0903 270° West 322 371 23,100 -2,040 Descending Salt Lake Center
03:31AM 40.1378 -111.2067 269° West 321 369 21,100 -1,860 Descending Salt Lake Center
03:32AM 40.1367 -111.3194 269° West 315 362 19,400 -1,680 Descending Salt Lake Center
03:33AM 40.1342 -111.4269 268° West 302 348 17,800 -1,680 Descending Salt Lake Center
03:34AM 40.1322 -111.5303 269° West 290 334 16,100 -1,200 Descending Salt Lake Center
03:35AM 40.1603 -111.6250 291° West 280 322 15,500 -1,380 Descending Salt Lake Center
03:36AM 40.1997 -111.7122 301° West 282 325 13,400 -1,500 Descending Salt Lake Center
03:37AM 40.2625 -111.7711 324° Northwest 278 320 12,500 -1,020 Descending Salt Lake Center
03:38AM 40.3272 -111.8194 330° Northwest 270 311 11,400 -1,080 Descending Salt Lake Center
03:39AM 40.3908 -111.8678 330° Northwest 264 304 10,400 -1,020 Descending Salt Lake Center
03:40AM 40.4503 -111.9136 330° Northwest 250 288 9,400 -780 Descending Salt Lake Center
03:41AM 40.5083 -111.9575 330° Northwest 241 277 8,900 -600 Descending Salt Lake Center
03:42AM 40.5681 -111.9714 350° North 222 255 8,300 -900 Descending Salt Lake Center
03:43AM 40.6275 -111.9781 355° North 215 247 7,200 -1,080 Descending Salt Lake Center
03:44AM 40.6775 -111.9839 355° North 180 207 6,200 -900 Descending Salt Lake Center
03:45AM 40.7167 -111.9883 355° North 146 168 5,400 -720 Descending Salt Lake Center
03:46AM 40.7497 -111.9922 355° North 123 142 4,800 -660 Descending Salt Lake Center
03:47AM 40.7836 -111.9961 355° North 122 140 4,100 -720 Descending Salt Lake Center
03:49AM 40.7884 -111.9778 14° North  Level Estimated